Time;durP1;ratioP1;P1;durP2;ratioP2;P2;SDS_P1;SDS_P2;PMS_P1;PMS_P2;Temp;Humidity;BMP_temperature;BMP_pressure;BME280_temperature;BME280_humidity;BME280_pressure;Samples;Min_cycle;Max_cycle;Signal;HPM_P1;HPM_P2
2021/08/27 00:01:36;;;;;;;8.4;5.6;;;;;;;12.35;100;97931.34;;;;
2021/08/27 00:11:36;;;;;;;12.8;6.5;;;;;;;12.39;100;97924.91;;;;
2021/08/27 00:21:35;;;;;;;7.3;4.7;;;;;;;12.35;100;97921.33;;;;
2021/08/27 00:31:35;;;;;;;6.7;4.5;;;;;;;12.39;100;97919.5;;;;
2021/08/27 00:41:34;;;;;;;6.5;4.8;;;;;;;12.53;100;97927.3;;;;
2021/08/27 00:51:33;;;;;;;6.7;4.3;;;;;;;12.59;100;97915.16;;;;
2021/08/27 01:01:33;;;;;;;8;5.2;;;;;;;12.72;100;97916.74;;;;
2021/08/27 01:11:38;;;;;;;8.7;4.3;;;;;;;12.57;100;97920.89;;;;
2021/08/27 01:22:01;;;;;;;7.1;4;;;;;;;12.43;100;97927.73;;;;
2021/08/27 01:31:35;;;;;;;9.4;3.9;;;;;;;12.46;100;97913.58;;;;
2021/08/27 01:41:36;;;;;;;7.1;5.5;;;;;;;12.38;100;97909.05;;;;
2021/08/27 01:51:31;;;;;;;6.4;3.4;;;;;;;12.15;100;97915.98;;;;
2021/08/27 02:01:32;;;;;;;6.1;3.5;;;;;;;12;100;97926.3;;;;
2021/08/27 02:21:27;;;;;;;6.4;3.6;;;;;;;11.91;100;97940.97;;;;
2021/08/27 02:31:26;;;;;;;5;3.2;;;;;;;11.78;100;97955.55;;;;
2021/08/27 02:41:25;;;;;;;6.2;3.9;;;;;;;11.89;100;97945.92;;;;
2021/08/27 02:51:24;;;;;;;6.7;3.2;;;;;;;12.05;100;97953.08;;;;
2021/08/27 03:01:25;;;;;;;6;2.9;;;;;;;12.17;100;97967.75;;;;
2021/08/27 03:11:23;;;;;;;6.5;3.2;;;;;;;12.21;100;97968.67;;;;
2021/08/27 03:21:22;;;;;;;6;3.3;;;;;;;12.08;100;97963.21;;;;
2021/08/27 03:31:21;;;;;;;4.5;2.7;;;;;;;12.15;100;97972.71;;;;
2021/08/27 03:41:20;;;;;;;7;2.9;;;;;;;12.23;100;97985.33;;;;
2021/08/27 03:51:19;;;;;;;5;2.4;;;;;;;12.33;100;97976.8;;;;
2021/08/27 04:01:18;;;;;;;4.2;1.9;;;;;;;12.32;100;97986.05;;;;
2021/08/27 04:11:18;;;;;;;9.7;3.7;;;;;;;12.15;100;97988.92;;;;
2021/08/27 04:21:17;;;;;;;8.6;4.1;;;;;;;12.27;100;97980.84;;;;
2021/08/27 04:31:16;;;;;;;5.4;3.4;;;;;;;12.15;100;97986.98;;;;
2021/08/27 04:41:15;;;;;;;6;3.9;;;;;;;12.35;100;98007;;;;
2021/08/27 04:51:14;;;;;;;7.3;4.3;;;;;;;12.61;100;97999.41;;;;
2021/08/27 05:01:14;;;;;;;6.4;3.5;;;;;;;12.63;100;98010.69;;;;
2021/08/27 05:11:14;;;;;;;4.9;3.3;;;;;;;12.74;100;98008.34;;;;
2021/08/27 05:21:16;;;;;;;4.7;3.1;;;;;;;13.04;100;97997;;;;
2021/08/27 05:31:18;;;;;;;5.5;2.9;;;;;;;13.19;100;98000.2;;;;
2021/08/27 05:41:14;;;;;;;7.7;4.4;;;;;;;13.14;100;98009.31;;;;
2021/08/27 05:51:14;;;;;;;8.9;4.8;;;;;;;13.36;100;98005.38;;;;
2021/08/27 06:01:10;;;;;;;7.9;5.9;;;;;;;13.64;100;98014.34;;;;
2021/08/27 06:11:09;;;;;;;6.6;4.3;;;;;;;13.66;100;98022.93;;;;
2021/08/27 06:21:09;;;;;;;8;5.5;;;;;;;14.06;100;98026.44;;;;
2021/08/27 06:31:08;;;;;;;11.9;6.3;;;;;;;14.52;100;98044.03;;;;
2021/08/27 06:41:08;;;;;;;11.1;10;;;;;;;14.96;100;98042.09;;;;
2021/08/27 06:51:07;;;;;;;15.4;8.1;;;;;;;15.94;100;98042.89;;;;
2021/08/27 07:01:07;;;;;;;9.6;7.4;;;;;;;15.83;100;98057.38;;;;
2021/08/27 07:11:07;;;;;;;8.8;5.7;;;;;;;16.08;100;98064.95;;;;
2021/08/27 07:21:07;;;;;;;10.4;6.6;;;;;;;16.53;100;98055.36;;;;
2021/08/27 07:31:07;;;;;;;8.3;6.2;;;;;;;17.22;100;98050.8;;;;
2021/08/27 07:41:07;;;;;;;9.5;5.6;;;;;;;18.42;100;98052.59;;;;
2021/08/27 07:51:07;;;;;;;8.2;4.3;;;;;;;17.69;100;98053.95;;;;
2021/08/27 08:01:07;;;;;;;5.2;3.6;;;;;;;17.74;100;98071.91;;;;
2021/08/27 08:11:07;;;;;;;4.8;2.9;;;;;;;18.17;100;98063.19;;;;
2021/08/27 08:21:07;;;;;;;12.1;4.2;;;;;;;17.56;100;98077.87;;;;
2021/08/27 08:31:07;;;;;;;5.7;3.7;;;;;;;17.71;100;98084.34;;;;
2021/08/27 08:41:07;;;;;;;8.3;5;;;;;;;17.51;100;98080.89;;;;
2021/08/27 08:51:08;;;;;;;8.8;5;;;;;;;17.76;100;98086.77;;;;
2021/08/27 09:01:12;;;;;;;4.9;2.5;;;;;;;17.13;100;98085.67;;;;
2021/08/27 09:11:07;;;;;;;6.6;3.6;;;;;;;16.65;100;98087.11;;;;
2021/08/27 09:21:07;;;;;;;6;3.9;;;;;;;16.59;100;98095.55;;;;
2021/08/27 09:31:07;;;;;;;6.7;3.4;;;;;;;16.64;100;98099.92;;;;
2021/08/27 09:41:07;;;;;;;6.7;3.4;;;;;;;16.52;100;98095.38;;;;
2021/08/27 09:51:07;;;;;;;4.8;3.3;;;;;;;16.49;100;98095.3;;;;
2021/08/27 10:01:07;;;;;;;8.6;4.7;;;;;;;16.79;100;98107.23;;;;
2021/08/27 10:11:07;;;;;;;6;3.8;;;;;;;16.9;100;98105.48;;;;
2021/08/27 10:21:07;;;;;;;11.9;4.6;;;;;;;16.9;100;98110.16;;;;
2021/08/27 10:31:07;;;;;;;7;4.4;;;;;;;16.71;100;98102.79;;;;
2021/08/27 10:41:07;;;;;;;6.9;3.7;;;;;;;17.16;100;98112.17;;;;
2021/08/27 10:51:07;;;;;;;13.3;5.6;;;;;;;17.77;100;98109.36;;;;
2021/08/27 11:01:07;;;;;;;7.6;3.3;;;;;;;18.53;100;98108.88;;;;
2021/08/27 11:11:11;;;;;;;4.5;3.1;;;;;;;18.32;100;98100.42;;;;
2021/08/27 11:21:07;;;;;;;3.8;1.5;;;;;;;18.21;100;98106.88;;;;
2021/08/27 11:31:07;;;;;;;6.3;2.7;;;;;;;17.94;100;98117.02;;;;
2021/08/27 11:41:07;;;;;;;6.8;3.4;;;;;;;17.76;100;98114.02;;;;
2021/08/27 11:51:07;;;;;;;6.4;3.2;;;;;;;17.42;100;98110.3;;;;
2021/08/27 12:01:08;;;;;;;8.2;3.9;;;;;;;16.96;100;98112.23;;;;
2021/08/27 12:11:08;;;;;;;9.5;5.6;;;;;;;16.32;100;98121;;;;
2021/08/27 12:21:08;;;;;;;7.3;4.3;;;;;;;16.15;100;98126.84;;;;
2021/08/27 12:31:07;;;;;;;6.2;4.1;;;;;;;16.03;100;98124.25;;;;
2021/08/27 12:41:07;;;;;;;7.4;4.9;;;;;;;16.2;100;98126.58;;;;
2021/08/27 12:51:09;;;;;;;5.9;4.1;;;;;;;16.4;100;98128.17;;;;
2021/08/27 13:01:18;;;;;;;6.3;4.3;;;;;;;16.65;100;98131.44;;;;
2021/08/27 13:11:07;;;;;;;5.9;3.7;;;;;;;16.78;100;98141.03;;;;
2021/08/27 13:21:07;;;;;;;4.3;2.9;;;;;;;16.53;100;98135.05;;;;
2021/08/27 13:31:07;;;;;;;12.5;4;;;;;;;16.58;100;98134.02;;;;
2021/08/27 13:41:07;;;;;;;7.5;3.9;;;;;;;16.94;100;98132.77;;;;
2021/08/27 13:51:07;;;;;;;9.1;5.3;;;;;;;16.96;100;98142.17;;;;
2021/08/27 14:01:07;;;;;;;5.6;3.4;;;;;;;16.45;100;98143.43;;;;
2021/08/27 14:11:07;;;;;;;5.8;3.2;;;;;;;16.67;100;98148.19;;;;
2021/08/27 14:21:07;;;;;;;4.7;2.6;;;;;;;16.59;100;98149.2;;;;
2021/08/27 14:31:09;;;;;;;6;3.3;;;;;;;16.43;100;98145.7;;;;
2021/08/27 14:41:07;;;;;;;10.9;3.3;;;;;;;16.39;100;98144.84;;;;
2021/08/27 14:51:07;;;;;;;5.9;3.8;;;;;;;16.17;100;98149.04;;;;
2021/08/27 15:01:07;;;;;;;7.9;3.7;;;;;;;15.99;100;98153.27;;;;
2021/08/27 15:11:07;;;;;;;4.8;3;;;;;;;15.83;100;98160.64;;;;
2021/08/27 15:21:07;;;;;;;5.6;3.4;;;;;;;15.79;100;98160.55;;;;
2021/08/27 15:31:06;;;;;;;6.6;3.6;;;;;;;15.85;100;98169.24;;;;
2021/08/27 15:41:06;;;;;;;6.4;3.6;;;;;;;16.36;100;98178.98;;;;
2021/08/27 15:51:06;;;;;;;6;3.6;;;;;;;17.32;100;98183.69;;;;
2021/08/27 16:01:06;;;;;;;6.7;3.6;;;;;;;17.52;100;98180.56;;;;
2021/08/27 16:11:06;;;;;;;4.9;2.3;;;;;;;19.48;100;98180.22;;;;
2021/08/27 16:21:07;;;;;;;6.3;3.3;;;;;;;19.08;100;98183.68;;;;
2021/08/27 16:31:07;;;;;;;6;2.8;;;;;;;18.44;100;98183.97;;;;
2021/08/27 16:41:07;;;;;;;5.9;3.6;;;;;;;17.83;100;98185.01;;;;
2021/08/27 16:51:07;;;;;;;8;3.4;;;;;;;17.29;100;98185.18;;;;
2021/08/27 17:01:07;;;;;;;4.5;3.1;;;;;;;17.1;100;98190.66;;;;
2021/08/27 17:11:07;;;;;;;4.6;2.2;;;;;;;16.22;100;98202.34;;;;
2021/08/27 17:21:08;;;;;;;5.2;3.2;;;;;;;15.93;100;98203.61;;;;
2021/08/27 17:31:07;;;;;;;6;3.3;;;;;;;15.66;100;98204.46;;;;
2021/08/27 17:41:07;;;;;;;6.5;4.9;;;;;;;15.33;100;98202.83;;;;
2021/08/27 17:51:07;;;;;;;7.4;4.5;;;;;;;15.25;100;98211.92;;;;
2021/08/27 18:01:06;;;;;;;12.4;11.1;;;;;;;14.88;100;98224.85;;;;
2021/08/27 18:11:06;;;;;;;8.5;6.3;;;;;;;14.81;100;98230.07;;;;
2021/08/27 18:21:06;;;;;;;9.3;4.5;;;;;;;14.66;100;98248.97;;;;
2021/08/27 18:31:05;;;;;;;7.4;4.6;;;;;;;14.42;100;98257.94;;;;
2021/08/27 18:41:05;;;;;;;8.4;5.2;;;;;;;14.19;100;98251.37;;;;
2021/08/27 18:51:05;;;;;;;13.1;9.5;;;;;;;13.96;100;98259.92;;;;
2021/08/27 19:01:05;;;;;;;11.3;8.1;;;;;;;13.67;100;98256.61;;;;
2021/08/27 19:11:04;;;;;;;7.8;4.3;;;;;;;13.33;100;98268.59;;;;
2021/08/27 19:21:03;;;;;;;9.5;6.7;;;;;;;13.02;100;98258.94;;;;
2021/08/27 19:31:02;;;;;;;8.8;6.6;;;;;;;12.77;100;98257.25;;;;
2021/08/27 19:41:02;;;;;;;9.3;6.8;;;;;;;12.57;100;98258;;;;
2021/08/27 19:51:01;;;;;;;9.5;6.1;;;;;;;12.25;100;98267.56;;;;
2021/08/27 20:01:02;;;;;;;10.8;8.1;;;;;;;12.09;100;98264.63;;;;
2021/08/27 20:11:00;;;;;;;10;7.1;;;;;;;12;100;98263.09;;;;
2021/08/27 20:21:01;;;;;;;8.5;6.8;;;;;;;11.92;100;98270.11;;;;
2021/08/27 20:30:58;;;;;;;9.5;8;;;;;;;11.77;100;98276.02;;;;
2021/08/27 20:40:57;;;;;;;9.7;7.6;;;;;;;11.67;100;98287.14;;;;
2021/08/27 20:51:00;;;;;;;7.8;5.5;;;;;;;11.62;100;98281.93;;;;
2021/08/27 21:00:57;;;;;;;15.8;14.1;;;;;;;11.49;100;98293.67;;;;
2021/08/27 21:10:57;;;;;;;15.2;13.1;;;;;;;11.25;100;98298.78;;;;
2021/08/27 21:21:01;;;;;;;27.5;22.8;;;;;;;11.05;100;98305.63;;;;
2021/08/27 21:30:57;;;;;;;33.3;24.5;;;;;;;10.84;100;98307.34;;;;
2021/08/27 21:40:57;;;;;;;19;11.7;;;;;;;10.66;100;98314.61;;;;
2021/08/27 21:50:52;;;;;;;10.3;8;;;;;;;10.49;100;98315.38;;;;
2021/08/27 22:00:51;;;;;;;12.5;8.3;;;;;;;10.32;100;98309.94;;;;
2021/08/27 22:10:50;;;;;;;11.8;8;;;;;;;10.24;100;98318.77;;;;
2021/08/27 22:20:49;;;;;;;10.2;6.8;;;;;;;10.18;100;98329.99;;;;
2021/08/27 22:30:48;;;;;;;9.4;7.6;;;;;;;10.13;100;98327.42;;;;
2021/08/27 22:40:47;;;;;;;32;26.3;;;;;;;10.07;100;98319.47;;;;
2021/08/27 22:50:46;;;;;;;10.4;7.3;;;;;;;9.85;100;98332.2;;;;
2021/08/27 23:00:45;;;;;;;11.9;7.1;;;;;;;9.69;100;98334.47;;;;
2021/08/27 23:10:44;;;;;;;9.3;6.5;;;;;;;9.46;100;98330.2;;;;
2021/08/27 23:20:43;;;;;;;9.5;7;;;;;;;9.33;100;98333.76;;;;
2021/08/27 23:30:42;;;;;;;11;7.5;;;;;;;9.27;100;98332.27;;;;
2021/08/27 23:40:41;;;;;;;10.6;6.2;;;;;;;9.26;100;98317.25;;;;
2021/08/27 23:50:42;;;;;;;10.2;6.3;;;;;;;9.2;100;98313.88;;;;
